Time;durP1;ratioP1;P1;durP2;ratioP2;P2;SDS_P1;SDS_P2;PMS_P1;PMS_P2;Temp;Humidity;BMP_temperature;BMP_pressure;BME280_temperature;BME280_humidity;BME280_pressure;Samples;Min_cycle;Max_cycle;Signal;HPM_P1;HPM_P2
2022/04/26 03:36:10;;;;;;;7.10;6.40;;;12.20;99.90;;;;;;4919413;29;20537;-80
2022/04/26 03:38:41;;;;;;;5.07;4.67;;;12.40;99.90;;;;;;4925285;29;20923;-80
2022/04/26 03:41:08;;;;;;;6.47;5.93;;;12.00;99.90;;;;;;4927348;29;20615;-80
2022/04/26 03:43:34;;;;;;;6.47;5.87;;;11.90;99.90;;;;;;4926010;29;20458;-83
2022/04/26 03:46:01;;;;;;;6.73;6.03;;;12.30;99.90;;;;;;4928449;29;20473;-82
2022/04/26 03:48:29;;;;;;;6.93;6.33;;;12.10;99.90;;;;;;4932389;29;20453;-80
2022/04/26 03:50:55;;;;;;;7.20;6.53;;;12.10;99.90;;;;;;4936324;29;20478;-80
2022/04/26 03:53:22;;;;;;;7.33;6.60;;;12.20;99.90;;;;;;4942097;28;20464;-80
2022/04/26 03:55:49;;;;;;;7.00;6.40;;;12.10;99.90;;;;;;4939079;28;22074;-81
2022/04/26 03:58:15;;;;;;;6.40;5.90;;;12.20;99.90;;;;;;4929458;29;20453;-80
2022/04/26 04:00:42;;;;;;;6.67;6.07;;;12.30;99.90;;;;;;4933150;29;20500;-80
2022/04/26 04:03:12;;;;;;;7.30;6.60;;;12.40;99.90;;;;;;4939711;29;20443;-80
2022/04/26 04:05:42;;;;;;;7.20;6.47;;;12.30;99.90;;;;;;4940636;29;20454;-80
2022/04/26 04:08:12;;;;;;;6.77;6.00;;;12.20;99.90;;;;;;4943667;28;20473;-80
2022/04/26 04:10:41;;;;;;;7.53;6.30;;;12.30;99.90;;;;;;4938489;29;22483;-81
2022/04/26 04:13:08;;;;;;;7.80;7.10;;;12.40;99.90;;;;;;4938027;28;20445;-80
2022/04/26 04:15:36;;;;;;;7.87;7.17;;;12.30;99.90;;;;;;4942362;28;20445;-81
2022/04/26 04:18:03;;;;;;;6.73;6.17;;;12.10;99.90;;;;;;4939529;28;20466;-82
2022/04/26 04:20:30;;;;;;;7.50;6.90;;;12.10;99.90;;;;;;4936459;29;20505;-80
2022/04/26 04:22:58;;;;;;;7.60;6.87;;;12.00;99.90;;;;;;4943557;28;20460;-81
2022/04/26 04:25:25;;;;;;;6.80;6.13;;;11.90;99.90;;;;;;4943953;28;20514;-81
2022/04/26 04:27:54;;;;;;;9.00;8.23;;;11.90;99.90;;;;;;4936839;29;20464;-80
2022/04/26 04:30:20;;;;;;;7.77;6.97;;;11.90;99.90;;;;;;4929107;29;20477;-82
2022/04/26 04:32:47;;;;;;;7.73;6.90;;;11.90;99.90;;;;;;4931658;29;20485;-80
2022/04/26 04:35:14;;;;;;;7.60;7.00;;;11.90;99.90;;;;;;4929529;29;20473;-82
2022/04/26 04:37:40;;;;;;;9.20;8.00;;;11.90;99.90;;;;;;4933550;29;20457;-80
2022/04/26 04:40:11;;;;;;;8.50;7.70;;;11.90;99.90;;;;;;4939976;29;20557;-79
2022/04/26 04:42:37;;;;;;;9.67;8.77;;;11.90;99.90;;;;;;4954757;29;21049;-81
2022/04/26 04:45:04;;;;;;;9.00;8.10;;;11.90;99.90;;;;;;4935406;29;20453;-81
2022/04/26 04:47:31;;;;;;;9.20;8.37;;;11.90;99.90;;;;;;4924686;29;20512;-81
2022/04/26 04:49:58;;;;;;;9.80;8.80;;;11.90;99.90;;;;;;4927087;29;20518;-79
2022/04/26 04:52:25;;;;;;;10.43;9.40;;;11.90;99.90;;;;;;4934783;29;20503;-81
2022/04/26 04:54:51;;;;;;;9.30;8.40;;;11.90;99.90;;;;;;4927977;29;20464;-81
2022/04/26 04:57:18;;;;;;;10.70;9.33;;;12.00;99.90;;;;;;4925434;29;20473;-82
2022/04/26 04:59:45;;;;;;;11.17;10.00;;;12.00;99.90;;;;;;4926353;29;20561;-81
2022/04/26 05:02:11;;;;;;;10.33;9.33;;;12.00;99.90;;;;;;4922019;29;20457;-79
2022/04/26 05:04:39;;;;;;;11.03;9.80;;;12.10;99.90;;;;;;4922458;29;20489;-81
2022/04/26 05:07:07;;;;;;;11.50;10.40;;;12.00;99.90;;;;;;4923865;29;20473;-81
2022/04/26 05:09:34;;;;;;;11.37;10.17;;;12.00;99.90;;;;;;4923735;29;20530;-81
2022/04/26 05:12:01;;;;;;;10.87;9.87;;;12.00;99.90;;;;;;4926578;29;20549;-84
2022/04/26 05:14:28;;;;;;;11.80;10.70;;;12.00;99.90;;;;;;4923346;29;20460;-82
2022/04/26 05:16:55;;;;;;;9.90;8.90;;;11.90;99.90;;;;;;4924693;29;20457;-81
2022/04/26 05:19:22;;;;;;;12.40;11.10;;;11.80;99.90;;;;;;4924904;29;20578;-83
2022/04/26 05:21:48;;;;;;;11.40;10.30;;;11.90;99.90;;;;;;4925033;29;20478;-81
2022/04/26 05:27:01;;;;;;;15.50;13.27;;;11.90;99.90;;;;;;4927594;29;20465;-81
2022/04/26 05:29:27;;;;;;;14.43;12.97;;;11.80;99.90;;;;;;4932191;29;20469;-79
2022/04/26 05:31:54;;;;;;;14.33;12.87;;;11.90;99.90;;;;;;4935122;29;20453;-80
2022/04/26 05:34:21;;;;;;;16.27;13.90;;;11.80;99.90;;;;;;4929196;29;21041;-80
2022/04/26 05:36:47;;;;;;;16.43;14.47;;;11.80;99.90;;;;;;4928116;29;20465;-81
2022/04/26 05:39:14;;;;;;;16.93;13.93;;;11.80;99.90;;;;;;4939990;29;20482;-79
2022/04/26 05:41:43;;;;;;;17.60;15.33;;;11.80;99.90;;;;;;4923087;29;20496;-82
2022/04/26 05:44:09;;;;;;;17.27;14.67;;;11.90;99.90;;;;;;4924532;29;20462;-81
2022/04/26 05:46:36;;;;;;;16.70;14.87;;;11.90;99.90;;;;;;4924968;29;20474;-81
2022/04/26 05:49:03;;;;;;;16.20;14.37;;;12.00;99.90;;;;;;4923681;29;20474;-80
2022/04/26 05:51:30;;;;;;;17.43;15.07;;;12.00;99.90;;;;;;4923747;29;20918;-81
2022/04/26 05:53:56;;;;;;;18.20;14.77;;;12.10;99.90;;;;;;4924474;29;20466;-80
2022/04/26 05:56:23;;;;;;;16.23;14.30;;;12.10;99.90;;;;;;4919992;29;20517;-80
2022/04/26 05:58:50;;;;;;;15.87;14.00;;;12.10;99.90;;;;;;4924065;29;20526;-82
2022/04/26 06:01:16;;;;;;;14.70;13.20;;;12.30;99.90;;;;;;4921561;29;20512;-81
2022/04/26 06:03:43;;;;;;;15.93;14.03;;;12.50;99.90;;;;;;4922108;29;21003;-80
2022/04/26 06:06:10;;;;;;;15.70;14.10;;;12.40;99.90;;;;;;4926542;29;20514;-81
2022/04/26 06:08:40;;;;;;;16.47;13.50;;;12.40;99.90;;;;;;4925648;29;20470;-80
2022/04/26 06:11:15;;;;;;;16.23;13.73;;;12.30;99.90;;;;;;4923558;29;20486;-81
2022/04/26 06:13:42;;;;;;;14.43;12.93;;;12.30;99.90;;;;;;4919840;29;20480;-81
2022/04/26 06:16:09;;;;;;;15.57;12.60;;;12.20;99.90;;;;;;4923850;29;20477;-79
2022/04/26 06:18:36;;;;;;;17.33;15.27;;;12.10;99.90;;;;;;4923494;29;20459;-81
2022/04/26 06:21:02;;;;;;;18.67;16.10;;;12.60;99.90;;;;;;4922766;29;21323;-80
2022/04/26 06:23:29;;;;;;;19.27;15.37;;;12.60;99.90;;;;;;4922837;29;20465;-80
2022/04/26 06:25:56;;;;;;;19.57;16.10;;;12.60;99.90;;;;;;4921350;29;21103;-81
2022/04/26 06:28:22;;;;;;;18.63;15.80;;;12.50;99.90;;;;;;4922804;29;20465;-81
2022/04/26 06:30:50;;;;;;;20.80;18.20;;;12.30;99.90;;;;;;4921435;29;20482;-79
2022/04/26 06:33:17;;;;;;;21.27;18.90;;;12.30;99.90;;;;;;4920696;29;20820;-80
2022/04/26 06:35:49;;;;;;;23.87;19.23;;;12.20;99.90;;;;;;4920964;29;20469;-81
2022/04/26 06:38:22;;;;;;;19.97;17.87;;;12.10;99.90;;;;;;4922120;29;20466;-79
2022/04/26 06:40:49;;;;;;;24.47;20.17;;;12.10;99.90;;;;;;4919497;29;20509;-80
2022/04/26 06:43:15;;;;;;;23.60;20.00;;;12.30;99.90;;;;;;4923479;29;20570;-81
2022/04/26 06:45:44;;;;;;;24.67;20.17;;;12.10;99.90;;;;;;4918499;29;20462;-80
2022/04/26 06:48:11;;;;;;;24.53;19.97;;;12.10;99.90;;;;;;4933105;28;20505;-81
2022/04/26 06:50:38;;;;;;;27.10;21.27;;;12.00;99.90;;;;;;4919728;29;20500;-81
2022/04/26 06:53:05;;;;;;;22.87;19.63;;;12.00;99.90;;;;;;4923274;29;20577;-82
2022/04/26 06:55:32;;;;;;;28.00;22.70;;;11.90;99.90;;;;;;4919112;29;20462;-81
2022/04/26 06:57:59;;;;;;;21.47;18.97;;;11.90;99.90;;;;;;4919257;29;20467;-80
2022/04/26 07:00:26;;;;;;;23.30;20.43;;;11.90;99.90;;;;;;4919484;29;20543;-80
2022/04/26 07:02:53;;;;;;;25.43;20.07;;;11.80;99.90;;;;;;4923840;29;20486;-81
2022/04/26 07:05:23;;;;;;;24.40;20.40;;;11.90;99.90;;;;;;4920492;29;20455;-81
2022/04/26 07:07:51;;;;;;;24.47;21.30;;;11.90;99.90;;;;;;4916478;29;20457;-82
2022/04/26 07:10:18;;;;;;;26.20;21.67;;;12.00;99.90;;;;;;4924425;29;21230;-82
2022/04/26 07:12:44;;;;;;;29.50;21.23;;;12.00;99.90;;;;;;4920525;29;20472;-81
2022/04/26 07:15:11;;;;;;;25.13;20.60;;;11.90;99.90;;;;;;4921845;29;20460;-82
2022/04/26 07:17:40;;;;;;;27.70;22.00;;;12.10;99.90;;;;;;4922068;29;20470;-79
2022/04/26 07:20:08;;;;;;;30.47;23.20;;;12.30;99.90;;;;;;4919970;29;20512;-80
2022/04/26 07:22:36;;;;;;;25.57;21.67;;;12.20;99.90;;;;;;4918880;29;20463;-81
2022/04/26 07:25:07;;;;;;;24.33;20.37;;;12.00;99.90;;;;;;4918296;29;20458;-82
2022/04/26 07:27:34;;;;;;;29.00;21.17;;;11.80;99.90;;;;;;4917980;29;20458;-82
2022/04/26 07:30:01;;;;;;;28.63;23.40;;;11.80;99.90;;;;;;4921207;29;20462;-81
2022/04/26 07:35:13;;;;;;;29.90;21.87;;;12.00;99.90;;;;;;4904331;29;20502;-80
2022/04/26 07:37:41;;;;;;;32.00;23.17;;;11.90;99.90;;;;;;4894562;29;20462;-82
2022/04/26 07:40:09;;;;;;;27.03;21.40;;;11.80;99.90;;;;;;4932180;29;20497;-81
2022/04/26 07:42:36;;;;;;;29.30;20.87;;;11.80;99.90;;;;;;4916093;29;20501;-81
2022/04/26 07:45:04;;;;;;;25.70;19.70;;;12.00;99.90;;;;;;4931563;29;20459;-80
2022/04/26 07:47:30;;;;;;;25.83;20.93;;;12.10;99.90;;;;;;4914001;29;20454;-82
2022/04/26 07:49:58;;;;;;;26.77;20.50;;;12.10;99.90;;;;;;4918757;29;20493;-82
2022/04/26 07:52:27;;;;;;;24.97;21.87;;;12.20;99.90;;;;;;4918368;29;21550;-79
2022/04/26 07:54:54;;;;;;;25.67;20.60;;;12.20;99.90;;;;;;4922935;29;20954;-81
2022/04/26 07:57:21;;;;;;;27.10;20.20;;;12.40;99.90;;;;;;4916336;29;20466;-82
2022/04/26 07:59:49;;;;;;;24.80;19.20;;;12.50;99.90;;;;;;4921629;29;20470;-82
2022/04/26 08:02:15;;;;;;;23.60;17.30;;;13.10;99.90;;;;;;4938135;28;20455;-81
2022/04/26 08:04:45;;;;;;;22.70;19.53;;;14.10;99.90;;;;;;4940926;29;20534;-81
2022/04/26 08:07:12;;;;;;;22.70;19.60;;;13.90;99.70;;;;;;4929500;29;20453;-81
2022/04/26 08:09:39;;;;;;;22.70;20.30;;;13.70;99.90;;;;;;4945917;28;20552;-81
2022/04/26 08:12:07;;;;;;;25.20;20.13;;;13.40;99.90;;;;;;4948514;28;20457;-82
2022/04/26 08:14:34;;;;;;;22.73;19.87;;;13.20;99.90;;;;;;4946244;28;20464;-80
2022/04/26 08:17:01;;;;;;;24.60;20.83;;;12.90;99.90;;;;;;4934596;29;20466;-79
2022/04/26 08:19:27;;;;;;;22.20;19.77;;;13.00;99.90;;;;;;4930108;29;20473;-81
2022/04/26 08:21:54;;;;;;;27.63;21.50;;;12.80;99.90;;;;;;4931857;29;20501;-81
2022/04/26 08:27:30;;;;;;;29.10;22.60;;;12.80;99.90;;;;;;4925678;29;20481;-82
2022/04/26 08:29:58;;;;;;;26.07;21.40;;;13.00;99.90;;;;;;4923498;29;20540;-81
2022/04/26 08:32:26;;;;;;;23.87;21.03;;;12.50;99.90;;;;;;4926111;29;20490;-82
2022/04/26 08:34:54;;;;;;;30.20;26.73;;;12.40;99.90;;;;;;4925046;29;21047;-81
2022/04/26 08:37:29;;;;;;;27.63;21.50;;;12.40;99.90;;;;;;4926223;29;20493;-80
2022/04/26 08:39:58;;;;;;;30.13;22.40;;;12.30;99.90;;;;;;4929238;29;20484;-81
2022/04/26 08:42:38;;;;;;;30.60;24.37;;;12.40;99.90;;;;;;4938618;29;20463;-81
2022/04/26 08:45:12;;;;;;;29.73;24.10;;;12.60;99.90;;;;;;4927034;29;20464;-82
2022/04/26 08:53:14;;;;;;;28.27;23.70;;;12.30;99.90;;;;;;4926387;29;20461;-81
2022/04/26 08:55:43;;;;;;;31.37;23.73;;;12.20;99.90;;;;;;4926573;29;20861;-81
2022/04/26 08:58:11;;;;;;;32.63;23.83;;;12.00;99.90;;;;;;4921067;29;20442;-81
2022/04/26 09:01:18;;;;;;;29.37;23.60;;;12.10;99.90;;;;;;4921367;29;20576;-82
2022/04/26 09:04:02;;;;;;;27.67;23.03;;;12.00;99.90;;;;;;4921905;29;20628;-82
2022/04/26 09:06:36;;;;;;;28.43;22.83;;;12.20;99.90;;;;;;4939920;29;20464;-81
2022/04/26 09:09:11;;;;;;;28.80;22.97;;;12.10;99.90;;;;;;4926862;29;20940;-82
2022/04/26 09:11:38;;;;;;;30.90;25.10;;;12.00;99.90;;;;;;4931162;29;20496;-82
2022/04/26 09:14:08;;;;;;;27.90;23.97;;;12.00;99.90;;;;;;4925247;29;20465;-82
2022/04/26 09:16:38;;;;;;;32.70;26.83;;;12.10;99.90;;;;;;4926203;29;20454;-82
2022/04/26 09:19:08;;;;;;;37.70;26.07;;;12.10;99.90;;;;;;4925025;29;20493;-82
2022/04/26 09:21:36;;;;;;;32.10;24.90;;;12.20;99.90;;;;;;4922500;29;20501;-81
2022/04/26 09:24:07;;;;;;;29.70;25.10;;;12.30;99.90;;;;;;4923334;29;20466;-82
2022/04/26 09:26:37;;;;;;;39.87;24.97;;;12.70;99.90;;;;;;4924421;29;20458;-81
2022/04/26 09:29:05;;;;;;;28.53;25.13;;;12.60;99.90;;;;;;4923670;29;20474;-79
2022/04/26 09:31:37;;;;;;;33.20;24.63;;;12.30;99.90;;;;;;4922254;29;20603;-81
2022/04/26 09:34:12;;;;;;;30.07;24.97;;;12.30;99.90;;;;;;4939458;29;21007;-81
2022/04/26 09:37:04;;;;;;;32.93;27.13;;;12.40;99.90;;;;;;4932098;29;20464;-81
2022/04/26 09:39:31;;;;;;;36.17;26.73;;;12.40;99.90;;;;;;4923277;29;20811;-82
2022/04/26 09:42:30;;;;;;;31.93;24.40;;;12.20;99.90;;;;;;4922549;29;20514;-82
2022/04/26 09:45:07;;;;;;;37.30;26.27;;;12.10;99.90;;;;;;4925559;29;21022;-81
2022/04/26 09:47:42;;;;;;;31.77;25.50;;;12.60;99.90;;;;;;4923717;29;21027;-80
2022/04/26 09:50:12;;;;;;;33.63;26.77;;;12.60;99.90;;;;;;4923387;29;20507;-80
2022/04/26 09:52:40;;;;;;;29.53;25.07;;;12.70;99.90;;;;;;4926356;29;20461;-80
2022/04/26 09:55:09;;;;;;;36.80;27.00;;;12.60;99.90;;;;;;4927863;29;20529;-81
2022/04/26 09:57:38;;;;;;;31.17;25.53;;;12.90;99.90;;;;;;4922691;29;20459;-80
2022/04/26 10:00:09;;;;;;;34.70;25.17;;;12.90;99.30;;;;;;4927775;29;20498;-80
2022/04/26 10:02:38;;;;;;;30.70;24.03;;;12.70;99.80;;;;;;4922970;29;20462;-81
2022/04/26 10:05:07;;;;;;;33.73;25.63;;;13.20;99.20;;;;;;4923812;29;20521;-81
2022/04/26 10:07:45;;;;;;;35.80;25.90;;;13.50;98.00;;;;;;4930605;29;20451;-81
2022/04/26 10:10:13;;;;;;;31.40;26.20;;;13.60;97.90;;;;;;4936182;29;20469;-82
2022/04/26 10:12:40;;;;;;;31.17;26.10;;;13.30;98.10;;;;;;4926227;29;20557;-82
2022/04/26 10:15:08;;;;;;;32.80;25.83;;;13.40;98.80;;;;;;4937892;29;20959;-80
2022/04/26 10:17:35;;;;;;;34.73;29.07;;;13.60;98.10;;;;;;4924913;29;20523;-81
2022/04/26 10:20:04;;;;;;;40.77;32.60;;;13.50;97.60;;;;;;4925805;29;20501;-82
2022/04/26 10:22:53;;;;;;;38.00;31.50;;;13.30;98.60;;;;;;4940988;29;20494;-81
2022/04/26 10:25:23;;;;;;;43.67;33.00;;;13.50;98.70;;;;;;4921135;29;20879;-81
2022/04/26 10:28:23;;;;;;;42.37;33.23;;;13.20;98.90;;;;;;4929869;29;20455;-80
2022/04/26 10:30:51;;;;;;;39.67;33.20;;;13.10;99.80;;;;;;4923128;29;21097;-81
2022/04/26 10:33:38;;;;;;;38.33;30.00;;;13.20;99.90;;;;;;4932966;29;20559;-80
2022/04/26 10:36:20;;;;;;;36.03;31.50;;;13.70;99.30;;;;;;4948495;29;20449;-81
2022/04/26 10:39:05;;;;;;;35.03;30.93;;;13.60;98.60;;;;;;4931585;29;20457;-79
2022/04/26 10:41:37;;;;;;;36.03;30.03;;;13.70;98.60;;;;;;4927342;29;20939;-81
2022/04/26 10:44:12;;;;;;;34.03;30.10;;;13.50;98.50;;;;;;4929320;29;20442;-81
2022/04/26 10:46:43;;;;;;;32.23;27.97;;;13.40;98.60;;;;;;4928188;29;20464;-80
2022/04/26 10:49:25;;;;;;;35.73;30.77;;;13.40;99.10;;;;;;4925866;29;20459;-81
2022/04/26 10:51:53;;;;;;;39.10;30.30;;;13.40;98.90;;;;;;4944086;29;20458;-82
2022/04/26 10:54:46;;;;;;;38.60;30.80;;;13.50;99.20;;;;;;4924204;29;20521;-81
2022/04/26 10:57:12;;;;;;;37.27;33.23;;;13.50;98.90;;;;;;4892725;29;20445;-80
2022/04/26 10:59:41;;;;;;;37.60;32.67;;;13.70;99.20;;;;;;4931842;29;20467;-81
2022/04/26 11:02:11;;;;;;;36.73;30.00;;;14.20;98.20;;;;;;4931195;29;20481;-80
2022/04/26 11:04:38;;;;;;;33.43;29.80;;;14.30;97.90;;;;;;4930104;29;20480;-82
2022/04/26 11:07:16;;;;;;;34.73;30.07;;;14.60;97.30;;;;;;4927767;29;20571;-82
2022/04/26 11:09:49;;;;;;;32.77;29.30;;;14.70;96.50;;;;;;4926796;29;20457;-81
2022/04/26 11:12:43;;;;;;;34.50;29.23;;;15.00;96.60;;;;;;4924572;29;20529;-82
2022/04/26 11:15:13;;;;;;;32.67;28.53;;;15.30;95.70;;;;;;4924724;29;20469;-82
2022/04/26 11:17:41;;;;;;;31.63;28.33;;;15.80;94.50;;;;;;4927988;29;20458;-81
2022/04/26 11:20:18;;;;;;;29.50;26.50;;;15.60;93.90;;;;;;4929415;29;20499;-80
2022/04/26 11:22:50;;;;;;;30.90;27.60;;;15.60;94.40;;;;;;4928909;29;20477;-82
2022/04/26 11:28:10;;;;;;;31.37;27.93;;;15.90;93.40;;;;;;4922480;29;20534;-82
2022/04/26 11:30:36;;;;;;;32.47;27.50;;;15.50;93.50;;;;;;4925029;29;22240;-81
2022/04/26 11:33:12;;;;;;;29.70;26.60;;;15.10;94.30;;;;;;4926450;29;20529;-81
2022/04/26 11:35:40;;;;;;;28.77;25.60;;;15.00;95.00;;;;;;4925201;29;20477;-80
2022/04/26 11:38:08;;;;;;;28.23;25.17;;;15.20;94.70;;;;;;4985387;23;22549;-82
2022/04/26 11:40:47;;;;;;;27.00;24.30;;;15.20;94.20;;;;;;4909409;29;20581;-81
2022/04/26 11:43:17;;;;;;;26.13;23.63;;;15.20;93.60;;;;;;4917429;29;20468;-81
2022/04/26 11:45:46;;;;;;;27.50;24.70;;;15.20;93.80;;;;;;4920401;29;20450;-81
2022/04/26 11:48:15;;;;;;;27.87;25.07;;;15.60;93.10;;;;;;4915403;29;20481;-82
2022/04/26 11:50:43;;;;;;;25.90;23.27;;;15.30;92.70;;;;;;4916464;29;20498;-82
2022/04/26 11:53:12;;;;;;;26.47;23.80;;;15.20;93.20;;;;;;4916417;29;20867;-82
2022/04/26 11:55:42;;;;;;;28.73;25.93;;;15.20;93.30;;;;;;4923403;29;20463;-81
2022/04/26 11:58:14;;;;;;;29.97;26.87;;;15.10;93.30;;;;;;4936269;29;20466;-79
2022/04/26 12:00:51;;;;;;;29.43;26.53;;;15.00;93.60;;;;;;4924260;29;20485;-82
2022/04/26 12:03:19;;;;;;;32.50;29.10;;;15.00;93.70;;;;;;4920798;29;20457;-81
2022/04/26 12:05:53;;;;;;;32.50;29.20;;;15.00;94.00;;;;;;4931884;29;20466;-81
2022/04/26 12:08:21;;;;;;;27.47;24.60;;;14.90;94.20;;;;;;4938647;29;20434;-81
2022/04/26 12:10:48;;;;;;;31.00;28.10;;;14.90;94.40;;;;;;4922249;29;20590;-80
2022/04/26 12:13:28;;;;;;;26.40;23.80;;;14.90;94.00;;;;;;4931750;29;20469;-80
2022/04/26 12:15:57;;;;;;;27.70;25.10;;;15.10;93.90;;;;;;4919240;29;20454;-82
2022/04/26 12:18:24;;;;;;;25.60;23.00;;;15.40;92.80;;;;;;4916829;29;20447;-83
2022/04/26 12:20:57;;;;;;;24.43;22.10;;;15.50;92.70;;;;;;4916807;29;20478;-82
2022/04/26 12:23:26;;;;;;;24.80;22.50;;;15.70;92.10;;;;;;4916293;29;20455;-81
2022/04/26 12:25:56;;;;;;;25.37;23.00;;;16.20;91.10;;;;;;4917184;29;20884;-82
2022/04/26 12:28:23;;;;;;;23.77;21.47;;;16.20;90.60;;;;;;4920488;29;20450;-82
2022/04/26 12:30:50;;;;;;;23.33;21.07;;;17.20;90.40;;;;;;4918567;29;20474;-82
2022/04/26 12:33:31;;;;;;;25.33;23.07;;;18.20;87.00;;;;;;4916668;29;20457;-82
2022/04/26 12:35:59;;;;;;;23.07;21.07;;;17.90;84.00;;;;;;4917334;29;20462;-82
2022/04/26 12:38:26;;;;;;;23.00;20.90;;;17.50;85.40;;;;;;4917805;29;20583;-81
2022/04/26 12:41:06;;;;;;;23.83;21.50;;;17.50;86.60;;;;;;4914798;29;20915;-83
2022/04/26 12:43:33;;;;;;;23.23;20.80;;;17.70;86.20;;;;;;4915261;29;20960;-82
2022/04/26 12:46:02;;;;;;;24.17;21.97;;;17.60;85.80;;;;;;4918521;29;20489;-82
2022/04/26 12:51:21;;;;;;;18.10;16.60;;;17.60;83.80;;;;;;4916925;29;20473;-81
2022/04/26 12:54:07;;;;;;;18.33;16.63;;;17.40;84.10;;;;;;4919750;29;20450;-81
2022/04/26 12:56:34;;;;;;;20.17;18.17;;;17.40;83.50;;;;;;4919827;29;20477;-81
2022/04/26 12:59:00;;;;;;;24.93;22.83;;;17.50;81.60;;;;;;4919673;29;20478;-81
2022/04/26 13:01:29;;;;;;;23.97;21.80;;;17.20;84.30;;;;;;4918390;29;20490;-81
2022/04/26 13:03:58;;;;;;;24.27;21.73;;;17.10;87.20;;;;;;4929891;29;20466;-81
2022/04/26 13:06:26;;;;;;;25.93;23.43;;;17.10;88.60;;;;;;4931321;29;20478;-82
2022/04/26 13:09:11;;;;;;;24.50;22.40;;;17.20;87.10;;;;;;4935896;28;20474;-81
2022/04/26 13:11:42;;;;;;;23.23;21.23;;;17.30;87.30;;;;;;4933389;29;20471;-80
2022/04/26 13:14:09;;;;;;;21.90;20.10;;;17.50;86.20;;;;;;4935739;28;20489;-80
2022/04/26 13:16:56;;;;;;;21.07;19.23;;;17.50;84.60;;;;;;4939170;29;20510;-82
2022/04/26 13:19:23;;;;;;;20.83;18.80;;;17.50;84.80;;;;;;4933626;28;20462;-80
2022/04/26 13:21:50;;;;;;;21.07;19.27;;;17.50;84.30;;;;;;4913872;29;20483;-81
2022/04/26 13:24:18;;;;;;;19.00;17.40;;;17.10;84.30;;;;;;4919151;29;20458;-80
2022/04/26 13:26:46;;;;;;;21.57;19.50;;;17.20;84.90;;;;;;4920929;29;20458;-81
2022/04/26 13:29:13;;;;;;;19.70;17.80;;;17.00;84.50;;;;;;4914068;29;20926;-82
2022/04/26 13:31:41;;;;;;;20.80;18.80;;;16.90;85.20;;;;;;4920374;29;20479;-81
2022/04/26 13:34:10;;;;;;;21.97;20.07;;;17.10;84.10;;;;;;4915485;29;20455;-80
2022/04/26 13:36:57;;;;;;;12.70;11.60;;;17.20;84.90;;;;;;4921839;29;20457;-80
2022/04/26 13:39:24;;;;;;;5.50;5.00;;;17.40;83.60;;;;;;4926593;29;20892;-79
2022/04/26 13:41:50;;;;;;;4.77;4.37;;;16.50;82.60;;;;;;4922591;29;20580;-81
2022/04/26 13:44:20;;;;;;;5.47;4.20;;;15.60;85.40;;;;;;4930879;29;20466;-80
2022/04/26 13:46:47;;;;;;;9.43;4.57;;;15.00;89.60;;;;;;4925259;29;20447;-80
2022/04/26 13:49:14;;;;;;;5.30;4.10;;;14.60;91.50;;;;;;4920647;29;20447;-81
2022/04/26 13:51:40;;;;;;;5.53;4.27;;;14.40;93.20;;;;;;4925592;29;20771;-80
2022/04/26 13:54:09;;;;;;;7.60;6.10;;;14.10;95.40;;;;;;4930213;29;20459;-80
2022/04/26 13:56:36;;;;;;;6.57;6.00;;;14.00;96.40;;;;;;4930705;29;20482;-81
2022/04/26 13:59:03;;;;;;;6.17;4.97;;;13.90;96.60;;;;;;4923184;29;20446;-81
2022/04/26 14:01:29;;;;;;;7.00;5.10;;;13.90;97.00;;;;;;4924524;29;20484;-81
2022/04/26 14:03:57;;;;;;;6.33;5.73;;;13.80;97.90;;;;;;4922962;29;20439;-80
2022/04/26 14:06:23;;;;;;;5.80;5.20;;;13.70;99.40;;;;;;4925749;29;20461;-79
2022/04/26 14:08:51;;;;;;;6.80;6.07;;;13.70;98.40;;;;;;4934099;29;20431;-81
2022/04/26 14:11:18;;;;;;;5.93;5.43;;;13.80;99.10;;;;;;4923217;29;20470;-82
2022/04/26 14:22:20;;;;;;;6.00;5.50;;;13.70;99.70;;;;;;4914365;29;20485;-81
2022/04/26 14:24:52;;;;;;;5.80;5.23;;;13.70;99.30;;;;;;4912704;29;20462;-82
2022/04/26 14:27:20;;;;;;;5.90;5.30;;;13.50;99.90;;;;;;4915121;29;20458;-82
2022/04/26 14:29:47;;;;;;;6.17;5.57;;;13.40;99.90;;;;;;4918630;29;20499;-82
2022/04/26 14:32:14;;;;;;;7.20;5.50;;;13.40;99.90;;;;;;4914213;29;20510;-81
2022/04/26 14:34:42;;;;;;;6.80;6.20;;;13.30;99.80;;;;;;4911938;29;20537;-79
2022/04/26 14:37:10;;;;;;;7.03;6.27;;;13.30;99.90;;;;;;4915030;29;20475;-81
2022/04/26 14:39:36;;;;;;;6.60;5.90;;;13.30;99.90;;;;;;4908783;29;20458;-81
2022/04/26 14:42:04;;;;;;;6.23;5.63;;;13.30;99.90;;;;;;4907801;29;20553;-82
2022/04/26 14:44:30;;;;;;;7.20;6.27;;;13.20;99.90;;;;;;4911080;29;20557;-81
2022/04/26 14:46:57;;;;;;;7.00;6.30;;;13.20;99.90;;;;;;4909584;29;20450;-81
2022/04/26 14:49:24;;;;;;;6.90;6.30;;;13.20;99.90;;;;;;4926362;29;20886;-80
2022/04/26 14:51:51;;;;;;;6.20;5.70;;;13.20;99.90;;;;;;4907119;29;20487;-79
2022/04/26 14:54:18;;;;;;;7.30;6.60;;;13.30;99.90;;;;;;4910325;29;20472;-81
2022/04/26 14:56:46;;;;;;;7.63;6.50;;;13.30;99.90;;;;;;4911474;29;20486;-80
2022/04/26 14:59:15;;;;;;;7.33;6.60;;;13.40;99.90;;;;;;4915199;29;20455;-82
2022/04/26 15:01:46;;;;;;;6.70;6.10;;;13.40;99.90;;;;;;4918135;28;20508;-80
2022/04/26 15:04:13;;;;;;;6.67;6.07;;;13.50;99.90;;;;;;4911288;29;20459;-80
2022/04/26 15:06:40;;;;;;;6.00;5.50;;;13.40;99.90;;;;;;4913163;29;20446;-82
2022/04/26 15:17:31;;;;;;;8.17;7.10;;;13.60;99.90;;;;;;4916102;29;20458;-81
2022/04/26 15:19:58;;;;;;;8.17;7.37;;;13.50;99.90;;;;;;4915932;29;20489;-82
2022/04/26 15:22:26;;;;;;;9.43;7.10;;;13.40;99.90;;;;;;4912481;29;20493;-81
2022/04/26 15:24:56;;;;;;;8.67;7.83;;;13.20;99.90;;;;;;4912430;29;20457;-82
2022/04/26 15:27:22;;;;;;;7.33;6.63;;;13.10;99.90;;;;;;4911233;29;20447;-82
2022/04/26 15:29:49;;;;;;;8.43;6.80;;;13.00;99.90;;;;;;4908507;29;20481;-81
2022/04/26 15:32:16;;;;;;;7.80;7.00;;;13.10;99.90;;;;;;4911781;29;21372;-82
2022/04/26 15:34:43;;;;;;;7.93;7.13;;;13.00;99.90;;;;;;4913899;29;20458;-80
2022/04/26 15:37:09;;;;;;;7.50;6.83;;;13.10;99.90;;;;;;4911082;29;20466;-79
2022/04/26 15:39:36;;;;;;;8.60;6.97;;;13.20;99.90;;;;;;4915301;29;20709;-80
2022/04/26 15:42:03;;;;;;;9.30;7.60;;;13.10;99.90;;;;;;4915620;29;20481;-79
2022/04/26 15:44:30;;;;;;;10.33;8.97;;;13.10;99.90;;;;;;4914155;29;20454;-81
2022/04/26 15:46:57;;;;;;;8.30;7.63;;;13.10;99.90;;;;;;4913956;29;20446;-82
2022/04/26 15:49:24;;;;;;;8.57;7.70;;;13.10;99.90;;;;;;4910176;29;20493;-81
2022/04/26 15:51:52;;;;;;;9.30;8.40;;;13.00;99.90;;;;;;4920789;29;20474;-80
2022/04/26 15:54:19;;;;;;;8.67;7.93;;;12.90;99.90;;;;;;4915740;29;20451;-81
2022/04/26 15:56:46;;;;;;;9.30;8.50;;;13.00;99.90;;;;;;4915781;29;20466;-80
2022/04/26 15:59:13;;;;;;;9.00;8.20;;;13.10;99.90;;;;;;4909220;29;20462;-80
2022/04/26 16:01:40;;;;;;;10.43;9.43;;;13.10;99.90;;;;;;4909952;29;20470;-82
2022/04/26 16:04:11;;;;;;;11.07;10.00;;;13.10;99.90;;;;;;4910634;29;20446;-81
2022/04/26 16:06:39;;;;;;;11.23;10.33;;;13.00;99.90;;;;;;4912720;29;20965;-80
2022/04/26 16:20:29;;;;;;;12.33;11.03;;;13.10;99.90;;;;;;4911010;29;20496;-82
2022/04/26 16:22:58;;;;;;;12.73;11.43;;;13.40;99.90;;;;;;4913447;29;20485;-81
2022/04/26 16:25:25;;;;;;;13.67;12.37;;;13.70;99.90;;;;;;4911831;29;20461;-83
2022/04/26 16:27:52;;;;;;;12.93;11.73;;;13.60;99.90;;;;;;4919157;29;20458;-80
2022/04/26 16:30:25;;;;;;;13.03;11.83;;;13.40;99.90;;;;;;4927331;29;20474;-80
2022/04/26 16:32:52;;;;;;;12.50;11.30;;;13.20;99.90;;;;;;4927195;29;20454;-80
2022/04/26 16:35:18;;;;;;;12.13;10.93;;;13.10;99.90;;;;;;4928748;29;20465;-81
2022/04/26 16:37:45;;;;;;;11.23;10.17;;;13.00;99.90;;;;;;4915951;29;20474;-80
2022/04/26 16:40:12;;;;;;;10.80;9.90;;;13.00;99.90;;;;;;4916312;29;20474;-81
2022/04/26 16:42:39;;;;;;;10.20;9.30;;;12.90;99.90;;;;;;4913152;29;20500;-81
2022/04/26 16:45:08;;;;;;;10.40;9.40;;;12.90;99.90;;;;;;4924957;29;20483;-80
2022/04/26 16:47:35;;;;;;;10.33;9.33;;;12.80;99.90;;;;;;4928288;29;20453;-79
2022/04/26 16:50:04;;;;;;;10.43;9.43;;;12.90;99.90;;;;;;4919937;29;20484;-83
2022/04/26 16:52:31;;;;;;;9.77;8.97;;;12.90;99.90;;;;;;4915497;29;20465;-81
2022/04/26 16:54:58;;;;;;;8.10;7.40;;;12.90;99.90;;;;;;4916574;29;20537;-81
2022/04/26 16:57:28;;;;;;;9.23;8.43;;;13.00;99.90;;;;;;4917434;29;20454;-81
2022/04/26 16:59:56;;;;;;;8.87;7.97;;;13.00;99.90;;;;;;4915566;29;20498;-81
2022/04/26 17:02:24;;;;;;;10.40;9.30;;;12.90;99.90;;;;;;4917380;29;21088;-81
2022/04/26 17:04:51;;;;;;;9.70;8.80;;;12.90;99.90;;;;;;4913870;29;20486;-81
2022/04/26 17:07:18;;;;;;;9.20;8.40;;;12.90;99.90;;;;;;4915225;29;20697;-79